createdAt,value
2023-02-22T00:01:03.024Z,7.83
2023-02-22T00:03:35.057Z,8.03
2023-02-22T00:06:05.100Z,7.77
2023-02-22T00:08:35.651Z,8.10
2023-02-22T00:11:08.559Z,8.17
2023-02-22T00:13:37.546Z,7.90
2023-02-22T00:16:05.230Z,8.10
2023-02-22T00:18:32.050Z,7.60
2023-02-22T00:21:00.858Z,7.57
2023-02-22T00:23:30.140Z,6.73
2023-02-22T00:25:58.444Z,6.87
2023-02-22T00:28:25.996Z,7.87
2023-02-22T00:30:54.924Z,7.37
2023-02-22T00:33:22.454Z,7.07
2023-02-22T00:35:49.595Z,6.73
2023-02-22T00:38:18.585Z,7.47
2023-02-22T00:40:45.996Z,6.93
2023-02-22T00:43:13.493Z,6.53
2023-02-22T00:45:40.362Z,7.60
2023-02-22T00:48:08.666Z,6.53
2023-02-22T00:50:36.586Z,6.93
2023-02-22T00:53:05.424Z,6.80
2023-02-22T00:55:34.601Z,6.60
2023-02-22T00:58:02.170Z,6.77
2023-02-22T01:00:32.427Z,6.87
2023-02-22T01:02:59.640Z,7.20
2023-02-22T01:05:29.279Z,7.40
2023-02-22T01:07:58.141Z,7.80
2023-02-22T01:10:28.160Z,7.20
2023-02-22T01:12:55.898Z,7.00
2023-02-22T01:15:25.082Z,7.37
2023-02-22T01:17:53.677Z,7.20
2023-02-22T01:20:29.202Z,7.07
2023-02-22T01:22:58.995Z,7.07
2023-02-22T01:25:29.056Z,7.40
2023-02-22T01:27:57.356Z,6.73
2023-02-22T01:30:27.715Z,7.13
2023-02-22T01:32:54.912Z,7.87
2023-02-22T01:35:26.196Z,7.70
2023-02-22T01:37:53.032Z,8.37
2023-02-22T01:40:26.693Z,9.20
2023-02-22T01:42:57.854Z,8.23
2023-02-22T01:45:30.826Z,8.30
2023-02-22T01:48:04.232Z,7.80
2023-02-22T01:50:35.545Z,8.37
2023-02-22T01:53:03.839Z,7.43
2023-02-22T01:55:32.796Z,7.47
2023-02-22T01:57:59.816Z,8.47
2023-02-22T02:00:27.738Z,7.40
2023-02-22T02:03:06.529Z,8.70
2023-02-22T02:05:35.311Z,8.60
2023-02-22T02:08:14.603Z,8.57
2023-02-22T02:10:42.885Z,8.37
2023-02-22T02:13:10.342Z,8.33
2023-02-22T02:15:37.357Z,9.00
2023-02-22T02:18:07.160Z,8.37
2023-02-22T02:21:00.934Z,9.27
2023-02-22T02:24:13.441Z,7.40
2023-02-22T02:26:40.253Z,8.87
2023-02-22T02:29:21.819Z,8.87
2023-02-22T02:32:03.507Z,8.60
2023-02-22T02:35:16.692Z,8.57
2023-02-22T02:38:11.962Z,7.83
2023-02-22T02:40:49.422Z,8.17
2023-02-22T02:43:29.305Z,8.10
2023-02-22T02:46:04.195Z,7.83
2023-02-22T02:48:34.514Z,7.77
2023-02-22T02:51:05.787Z,7.83
2023-02-22T02:53:39.472Z,7.20
2023-02-22T02:56:07.718Z,6.43
2023-02-22T02:58:34.982Z,7.07
2023-02-22T03:01:04.596Z,6.97
2023-02-22T03:03:53.752Z,7.43
2023-02-22T03:06:41.689Z,8.10
2023-02-22T03:09:24.723Z,7.20
2023-02-22T03:12:02.265Z,7.87
2023-02-22T03:14:45.764Z,6.80
2023-02-22T03:17:30.305Z,7.60
2023-02-22T03:20:10.537Z,6.60
2023-02-22T03:22:48.184Z,7.27
2023-02-22T03:25:20.790Z,6.47
2023-02-22T03:27:49.965Z,7.10
2023-02-22T03:30:45.545Z,7.10
2023-02-22T03:33:20.538Z,7.37
2023-02-22T03:35:57.077Z,6.90
2023-02-22T03:38:27.173Z,7.50
2023-02-22T03:40:59.358Z,7.13
2023-02-22T03:43:31.721Z,7.70
2023-02-22T03:45:59.952Z,8.53
2023-02-22T03:48:46.053Z,7.13
2023-02-22T03:51:16.962Z,7.57
2023-02-22T03:53:44.806Z,7.03
2023-02-22T03:56:20.147Z,7.40
2023-02-22T03:58:49.287Z,7.80
2023-02-22T04:01:17.781Z,8.00
2023-02-22T04:03:44.846Z,7.47
2023-02-22T04:06:12.535Z,7.50
2023-02-22T04:08:39.565Z,7.90
2023-02-22T04:11:06.882Z,7.03
2023-02-22T04:13:33.809Z,7.10
2023-02-22T04:16:00.754Z,6.90
2023-02-22T04:18:28.056Z,6.97
2023-02-22T04:20:54.865Z,6.37
2023-02-22T04:23:22.262Z,6.90
2023-02-22T04:25:49.524Z,6.97
2023-02-22T04:28:16.411Z,7.07
2023-02-22T04:30:44.056Z,6.40
2023-02-22T04:33:11.064Z,7.23
2023-02-22T04:35:38.196Z,6.73
2023-02-22T04:38:05.460Z,6.43
2023-02-22T04:40:32.436Z,6.57
2023-02-22T04:43:00.390Z,6.90
2023-02-22T04:45:27.507Z,6.57
2023-02-22T04:47:54.358Z,7.03
2023-02-22T04:50:21.388Z,6.23
2023-02-22T04:52:48.972Z,7.27
2023-02-22T04:55:16.741Z,6.57
2023-02-22T04:57:43.657Z,6.83
2023-02-22T05:00:11.304Z,6.10
2023-02-22T05:02:41.403Z,6.80
2023-02-22T05:05:08.766Z,5.87
2023-02-22T05:07:35.993Z,6.33
2023-02-22T05:10:03.063Z,5.77
2023-02-22T05:12:30.672Z,6.43
2023-02-22T05:14:57.510Z,6.80
2023-02-22T05:17:24.367Z,6.23
2023-02-22T05:19:51.229Z,6.23
2023-02-22T05:22:18.189Z,7.00
2023-02-22T05:24:45.042Z,7.47
2023-02-22T05:27:12.302Z,6.77
2023-02-22T05:29:39.201Z,6.33
2023-02-22T05:32:06.908Z,6.60
2023-02-22T05:34:33.864Z,7.43
2023-02-22T05:37:00.730Z,8.27
2023-02-22T05:39:27.579Z,10.10
2023-02-22T05:41:54.522Z,10.27
2023-02-22T05:44:21.392Z,8.97
2023-02-22T05:46:48.294Z,9.07
2023-02-22T05:49:15.908Z,9.17
2023-02-22T05:51:43.162Z,7.83
2023-02-22T05:54:09.989Z,11.63
2023-02-22T05:56:36.926Z,16.67
2023-02-22T05:59:03.785Z,22.30
2023-02-22T06:01:30.613Z,23.37
2023-02-22T06:03:57.932Z,30.00
2023-02-22T06:06:24.821Z,41.70
2023-02-22T06:08:51.781Z,43.87
2023-02-22T06:11:19.934Z,54.93
2023-02-22T06:13:53.765Z,49.67
2023-02-22T06:16:22.519Z,41.30
2023-02-22T06:18:49.808Z,33.87
2023-02-22T06:21:18.315Z,38.10
2023-02-22T06:23:45.375Z,45.43
2023-02-22T06:26:12.223Z,46.60
2023-02-22T06:28:39.061Z,45.43
2023-02-22T06:31:06.039Z,41.27
2023-02-22T06:33:32.874Z,42.70
2023-02-22T06:35:59.714Z,40.67
2023-02-22T06:38:27.918Z,39.80
2023-02-22T06:40:55.423Z,33.17
2023-02-22T06:43:24.743Z,30.70
2023-02-22T06:45:52.591Z,28.83
2023-02-22T06:48:19.601Z,28.57
2023-02-22T06:50:46.538Z,28.03
2023-02-22T06:53:13.363Z,25.57
2023-02-22T06:55:40.208Z,26.80
2023-02-22T06:58:07.061Z,25.13
2023-02-22T07:00:33.970Z,23.23
2023-02-22T07:03:03.948Z,22.90
2023-02-22T07:05:31.075Z,21.87
2023-02-22T07:08:06.784Z,23.33
2023-02-22T07:10:35.649Z,24.03
2023-02-22T07:13:03.510Z,21.83
2023-02-22T07:15:32.860Z,30.57
2023-02-22T07:18:00.777Z,33.43
2023-02-22T07:20:30.145Z,30.40
2023-02-22T07:22:57.152Z,30.80
2023-02-22T07:25:24.646Z,24.90
2023-02-22T07:27:52.593Z,22.87
2023-02-22T07:30:25.799Z,21.60
2023-02-22T07:32:54.983Z,15.97
2023-02-22T07:35:27.846Z,15.93
2023-02-22T07:37:56.164Z,14.53
2023-02-22T07:40:24.924Z,14.07
2023-02-22T07:43:00.435Z,12.13
2023-02-22T07:45:32.950Z,10.90
2023-02-22T07:48:01.187Z,8.77
2023-02-22T07:50:30.849Z,8.60
2023-02-22T07:52:59.949Z,8.13
2023-02-22T07:55:29.101Z,6.83
2023-02-22T07:58:02.276Z,7.67
2023-02-22T08:00:48.559Z,7.17
2023-02-22T08:03:16.873Z,7.40
2023-02-22T08:05:48.098Z,6.50
2023-02-22T08:08:18.730Z,6.00
2023-02-22T08:10:47.221Z,6.57
2023-02-22T08:13:14.294Z,7.93
2023-02-22T08:15:42.862Z,6.60
2023-02-22T08:18:13.835Z,6.73
2023-02-22T08:20:42.358Z,6.57
2023-02-22T08:23:10.031Z,6.13
2023-02-22T08:25:37.530Z,6.90
2023-02-22T08:28:10.739Z,6.13
2023-02-22T08:30:40.436Z,5.83
2023-02-22T08:33:07.599Z,5.33
2023-02-22T08:35:34.742Z,6.20
2023-02-22T08:38:03.932Z,6.10
2023-02-22T08:40:33.697Z,5.47
2023-02-22T08:43:01.805Z,5.17
2023-02-22T08:45:29.155Z,5.50
2023-02-22T08:47:56.290Z,5.10
2023-02-22T08:50:24.445Z,6.30
2023-02-22T08:52:53.786Z,6.13
2023-02-22T08:55:26.395Z,6.63
2023-02-22T08:57:53.324Z,6.53
2023-02-22T09:00:24.843Z,7.03
2023-02-22T09:02:53.038Z,5.83
2023-02-22T09:05:20.861Z,6.60
2023-02-22T09:07:48.918Z,7.00
2023-02-22T09:10:18.517Z,7.55
2023-02-22T09:12:45.384Z,7.85
2023-02-22T09:15:15.087Z,7.53
2023-02-22T09:17:42.378Z,7.72
2023-02-22T09:20:12.173Z,7.75
2023-02-22T09:22:39.704Z,7.20
2023-02-22T09:25:16.363Z,7.30
2023-02-22T09:27:45.100Z,6.63
2023-02-22T09:30:24.053Z,6.38
2023-02-22T09:32:54.342Z,6.40
2023-02-22T09:35:27.562Z,5.57
2023-02-22T09:37:56.602Z,4.93
2023-02-22T09:40:25.908Z,5.15
2023-02-22T09:42:57.136Z,5.13
2023-02-22T09:45:32.032Z,5.05
2023-02-22T09:48:15.266Z,4.93
2023-02-22T09:50:51.400Z,4.72
2023-02-22T09:53:31.658Z,5.97
2023-02-22T09:56:06.749Z,5.10
2023-02-22T09:58:52.805Z,4.83
2023-02-22T10:01:32.731Z,5.33
2023-02-22T10:04:20.002Z,5.40
2023-02-22T10:06:56.503Z,5.97
2023-02-22T10:09:29.290Z,5.20
2023-02-22T10:12:03.699Z,4.50
2023-02-22T10:14:43.784Z,4.93
2023-02-22T10:17:31.940Z,4.77
2023-02-22T10:20:07.937Z,4.37
2023-02-22T10:23:12.290Z,3.57
2023-02-22T10:25:39.716Z,3.43
2023-02-22T10:28:17.673Z,2.93
2023-02-22T10:30:56.216Z,2.80
2023-02-22T10:33:39.802Z,3.07
2023-02-22T10:36:15.199Z,3.10
2023-02-22T10:38:46.294Z,2.47
2023-02-22T10:41:27.205Z,2.30
2023-02-22T10:43:54.142Z,2.80
2023-02-22T10:46:22.430Z,2.87
2023-02-22T10:48:54.506Z,3.20
2023-02-22T10:51:21.565Z,2.80
2023-02-22T10:54:16.735Z,3.70
2023-02-22T10:56:48.826Z,2.83
2023-02-22T10:59:30.512Z,2.80
2023-02-22T11:01:57.775Z,5.30
2023-02-22T11:04:25.122Z,5.47
2023-02-22T11:07:10.124Z,4.63
2023-02-22T11:09:53.834Z,4.00
2023-02-22T11:12:27.640Z,4.37
2023-02-22T11:14:54.876Z,3.30
2023-02-22T11:17:41.156Z,3.10
2023-02-22T11:20:18.038Z,3.33
2023-02-22T11:22:44.953Z,3.40
2023-02-22T11:25:22.582Z,3.03
2023-02-22T11:27:49.491Z,3.03
2023-02-22T11:30:25.461Z,3.60
2023-02-22T11:33:17.016Z,3.17
2023-02-22T11:35:53.394Z,3.70
2023-02-22T11:38:24.478Z,4.93
2023-02-22T11:41:24.920Z,18.63
2023-02-22T11:43:54.419Z,11.17
2023-02-22T11:46:22.672Z,7.90
2023-02-22T11:49:05.946Z,5.10
2023-02-22T11:51:57.020Z,3.83
2023-02-22T11:55:09.912Z,2.97
2023-02-22T11:58:08.473Z,2.97
2023-02-22T12:00:56.213Z,3.03
2023-02-22T12:03:44.830Z,3.30
2023-02-22T12:06:33.571Z,3.43
2023-02-22T12:09:15.671Z,3.17
2023-02-22T12:12:07.946Z,3.17
2023-02-22T12:14:53.152Z,3.50
2023-02-22T12:17:43.608Z,4.00
2023-02-22T12:20:45.720Z,3.10
2023-02-22T12:23:15.389Z,3.53
2023-02-22T12:26:09.157Z,2.90
2023-02-22T12:28:48.832Z,3.27
2023-02-22T12:31:25.918Z,2.83
2023-02-22T12:34:03.482Z,3.17
2023-02-22T12:36:46.933Z,3.20
2023-02-22T12:39:52.219Z,3.07
2023-02-22T12:43:01.745Z,4.33
2023-02-22T12:45:36.044Z,4.83
2023-02-22T12:48:19.983Z,3.87
2023-02-22T12:50:50.790Z,4.03
2023-02-22T12:53:25.813Z,3.00
2023-02-22T12:56:03.323Z,3.80
2023-02-22T12:58:39.633Z,3.87
2023-02-22T13:01:20.628Z,3.67
2023-02-22T13:03:49.199Z,3.80
2023-02-22T13:06:38.189Z,3.20
2023-02-22T13:09:17.292Z,3.67
2023-02-22T13:12:07.179Z,3.30
2023-02-22T13:14:54.903Z,3.30
2023-02-22T13:17:40.356Z,3.17
2023-02-22T13:20:19.018Z,3.60
2023-02-22T13:22:45.822Z,3.53
2023-02-22T13:25:15.967Z,3.03
2023-02-22T13:28:02.124Z,2.97
2023-02-22T13:30:45.600Z,8.80
2023-02-22T13:33:31.303Z,8.30
2023-02-22T13:36:19.168Z,5.77
2023-02-22T13:39:09.746Z,4.67
2023-02-22T13:41:53.037Z,6.87
2023-02-22T13:44:36.517Z,4.23
2023-02-22T13:47:17.652Z,4.57
2023-02-22T13:49:53.027Z,10.00
2023-02-22T13:52:26.327Z,10.83
2023-02-22T13:55:02.657Z,13.33
2023-02-22T13:57:51.725Z,6.80
2023-02-22T14:00:24.892Z,5.63
2023-02-22T14:03:01.486Z,6.97
2023-02-22T14:05:43.042Z,64.00
2023-02-22T14:08:19.102Z,31.67
2023-02-22T14:11:22.450Z,10.67
2023-02-22T14:13:57.189Z,8.10
2023-02-22T14:16:29.343Z,9.30
2023-02-22T14:19:15.710Z,6.57
2023-02-22T14:22:03.819Z,4.40
2023-02-22T14:24:43.239Z,4.00
2023-02-22T14:27:11.619Z,7.53
2023-02-22T14:29:49.039Z,6.57
2023-02-22T14:32:17.848Z,4.20
2023-02-22T14:34:49.634Z,3.27
2023-02-22T14:37:29.638Z,3.57
2023-02-22T14:40:19.608Z,3.30
2023-02-22T14:42:51.057Z,2.77
2023-02-22T14:45:33.504Z,3.50
2023-02-22T14:48:21.077Z,5.43
2023-02-22T14:50:54.528Z,10.00
2023-02-22T14:53:27.448Z,19.27
2023-02-22T14:56:07.111Z,16.57
2023-02-22T14:58:57.320Z,8.17
2023-02-22T15:04:26.791Z,5.60
2023-02-22T15:06:56.247Z,4.27
2023-02-22T15:09:34.664Z,3.77
2023-02-22T15:12:04.910Z,4.07
2023-02-22T15:14:38.071Z,3.83
2023-02-22T15:17:14.742Z,3.43
2023-02-22T15:19:42.462Z,3.23
2023-02-22T15:22:22.773Z,3.13
2023-02-22T15:25:15.982Z,3.80
2023-02-22T15:27:47.598Z,3.37
2023-02-22T15:30:23.965Z,3.63
2023-02-22T15:33:03.515Z,8.83
2023-02-22T15:35:33.576Z,20.07
2023-02-22T15:38:06.805Z,23.97
2023-02-22T15:40:35.530Z,22.43
2023-02-22T15:43:09.061Z,15.63
2023-02-22T15:45:43.057Z,11.47
2023-02-22T15:48:14.668Z,8.67
2023-02-22T15:51:07.310Z,8.70
2023-02-22T15:53:49.661Z,8.97
2023-02-22T15:56:19.987Z,7.03
2023-02-22T15:58:48.001Z,7.50
2023-02-22T16:01:19.264Z,7.27
2023-02-22T16:03:47.953Z,9.57
2023-02-22T16:06:54.212Z,10.87
2023-02-22T16:09:29.027Z,15.80
2023-02-22T16:12:09.944Z,19.57
2023-02-22T16:14:36.722Z,20.73
2023-02-22T16:17:49.478Z,24.27
2023-02-22T16:20:24.998Z,25.53
2023-02-22T16:22:52.080Z,21.30
2023-02-22T16:25:19.006Z,17.83
2023-02-22T16:27:53.373Z,13.47
2023-02-22T16:30:34.192Z,13.03
2023-02-22T16:33:05.663Z,11.97
2023-02-22T16:35:35.830Z,10.97
2023-02-22T16:38:06.017Z,9.57
2023-02-22T16:40:35.876Z,10.70
2023-02-22T16:43:24.588Z,13.60
2023-02-22T16:45:53.313Z,15.43
2023-02-22T16:48:23.954Z,14.73
2023-02-22T16:50:53.136Z,30.37
2023-02-22T16:53:23.777Z,28.17
2023-02-22T16:55:57.858Z,30.60
2023-02-22T16:58:29.402Z,40.80
2023-02-22T17:00:57.632Z,150.17
2023-02-22T17:03:26.555Z,189.33
2023-02-22T17:05:53.801Z,233.47
2023-02-22T17:08:20.681Z,164.77
2023-02-22T17:10:51.629Z,59.50
2023-02-22T17:13:27.152Z,48.27
2023-02-22T17:15:57.566Z,131.80
2023-02-22T17:18:28.698Z,246.30
2023-02-22T17:20:56.210Z,184.87
2023-02-22T17:23:24.402Z,198.27
2023-02-22T17:25:55.340Z,208.57
2023-02-22T17:28:24.885Z,205.87
2023-02-22T17:30:54.014Z,94.73
2023-02-22T17:33:26.838Z,61.03
2023-02-22T17:35:55.961Z,49.20
2023-02-22T17:38:23.633Z,44.07
2023-02-22T17:40:54.985Z,42.30
2023-02-22T17:43:22.021Z,39.80
2023-02-22T17:45:49.161Z,32.23
2023-02-22T17:48:17.222Z,27.33
2023-02-22T17:50:46.566Z,25.97
2023-02-22T17:53:14.167Z,27.43
2023-02-22T17:55:43.247Z,29.63
2023-02-22T17:58:20.447Z,29.20
2023-02-22T18:00:50.858Z,24.27
2023-02-22T18:03:25.881Z,37.13
2023-02-22T18:06:00.058Z,38.47
2023-02-22T18:08:29.124Z,28.87
2023-02-22T18:11:02.102Z,24.10
2023-02-22T18:13:28.963Z,21.03
2023-02-22T18:16:05.250Z,19.73
2023-02-22T18:18:32.809Z,17.60
2023-02-22T18:21:00.032Z,19.20
2023-02-22T18:23:29.237Z,20.57
2023-02-22T18:26:09.611Z,21.23
2023-02-22T18:28:37.341Z,23.67
2023-02-22T18:31:09.671Z,26.20
2023-02-22T18:33:36.812Z,28.73
2023-02-22T18:36:04.690Z,24.53
2023-02-22T18:38:31.641Z,42.07
2023-02-22T18:41:06.824Z,49.63
2023-02-22T18:43:36.809Z,37.10
2023-02-22T18:46:12.460Z,35.17
2023-02-22T18:48:40.050Z,32.73
2023-02-22T18:51:10.444Z,40.57
2023-02-22T18:53:40.973Z,34.43
2023-02-22T18:56:11.142Z,31.47
2023-02-22T18:58:38.986Z,27.17
2023-02-22T19:01:07.116Z,20.73
2023-02-22T19:03:38.288Z,16.63
2023-02-22T19:06:08.887Z,13.33
2023-02-22T19:08:39.703Z,12.43
2023-02-22T19:11:10.638Z,10.63
2023-02-22T19:13:38.466Z,9.73
2023-02-22T19:16:07.535Z,10.50
2023-02-22T19:18:34.803Z,11.83
2023-02-22T19:21:10.706Z,12.20
2023-02-22T19:23:45.427Z,11.70
2023-02-22T19:26:24.225Z,10.63
2023-02-22T19:28:52.819Z,10.77
2023-02-22T19:31:38.952Z,11.17
2023-02-22T19:34:09.664Z,11.87
2023-02-22T19:36:47.429Z,13.27
2023-02-22T19:39:16.289Z,11.90
2023-02-22T19:41:43.306Z,10.90
2023-02-22T19:44:10.660Z,11.47
2023-02-22T19:46:38.088Z,11.23
2023-02-22T19:49:06.036Z,12.57
2023-02-22T19:51:33.141Z,14.03
2023-02-22T19:54:05.830Z,15.30
2023-02-22T19:56:35.432Z,15.67
2023-02-22T19:59:09.661Z,14.40
2023-02-22T20:01:37.140Z,16.27
2023-02-22T20:04:06.738Z,32.53
2023-02-22T20:06:41.735Z,23.60
2023-02-22T20:09:13.986Z,16.30
2023-02-22T20:11:41.032Z,13.83
2023-02-22T20:14:08.047Z,13.53
2023-02-22T20:16:35.779Z,12.20
2023-02-22T20:19:02.830Z,12.53
2023-02-22T20:21:34.484Z,12.37
2023-02-22T20:24:04.155Z,12.93
2023-02-22T20:26:36.779Z,13.37
2023-02-22T20:29:05.044Z,12.37
2023-02-22T20:31:33.237Z,13.27
2023-02-22T20:34:01.494Z,13.40
2023-02-22T20:36:30.461Z,12.50
2023-02-22T20:38:59.320Z,13.33
2023-02-22T20:41:32.480Z,12.50
2023-02-22T20:44:01.424Z,12.60
2023-02-22T20:46:31.687Z,12.37
2023-02-22T20:49:00.559Z,12.63
2023-02-22T20:51:29.010Z,13.70
2023-02-22T20:53:59.954Z,17.97
2023-02-22T20:56:28.912Z,19.70
2023-02-22T20:58:56.953Z,23.80
2023-02-22T21:01:23.951Z,22.23
2023-02-22T21:03:51.451Z,21.93
2023-02-22T21:06:21.603Z,23.17
2023-02-22T21:08:56.586Z,19.63
2023-02-22T21:11:25.738Z,18.87
2023-02-22T21:13:52.751Z,19.63
2023-02-22T21:16:25.389Z,20.03
2023-02-22T21:18:54.406Z,19.33
2023-02-22T21:21:22.411Z,19.40
2023-02-22T21:23:52.769Z,20.90
2023-02-22T21:26:25.315Z,21.77
2023-02-22T21:28:53.240Z,19.73
2023-02-22T21:31:25.629Z,18.53
2023-02-22T21:33:56.504Z,17.17
2023-02-22T21:36:27.069Z,20.53
2023-02-22T21:39:01.090Z,19.00
2023-02-22T21:41:33.392Z,17.47
2023-02-22T21:44:00.783Z,17.27
2023-02-22T21:46:32.137Z,16.10
2023-02-22T21:48:59.281Z,20.17
2023-02-22T21:51:35.702Z,20.53
2023-02-22T21:54:05.912Z,20.80
2023-02-22T21:56:36.973Z,20.10
2023-02-22T21:59:24.040Z,21.27
2023-02-22T22:01:58.487Z,25.20
2023-02-22T22:04:32.104Z,23.53
2023-02-22T22:07:01.800Z,24.43
2023-02-22T22:09:35.963Z,23.43
2023-02-22T22:12:06.646Z,27.47
2023-02-22T22:14:37.244Z,32.20
2023-02-22T22:17:11.306Z,29.03
2023-02-22T22:19:46.355Z,30.60
2023-02-22T22:22:13.724Z,30.03
2023-02-22T22:24:47.430Z,28.90
2023-02-22T22:27:16.759Z,27.90
2023-02-22T22:29:44.720Z,26.90
2023-02-22T22:32:15.008Z,28.57
2023-02-22T22:34:43.876Z,26.63
2023-02-22T22:37:11.137Z,28.07
2023-02-22T22:39:38.750Z,24.13
2023-02-22T22:42:05.935Z,31.83
2023-02-22T22:44:41.637Z,26.50
2023-02-22T22:47:17.855Z,27.07
2023-02-22T22:50:08.356Z,21.10
2023-02-22T22:52:39.734Z,22.37
2023-02-22T22:55:12.731Z,19.27
2023-02-22T22:57:41.258Z,21.17
2023-02-22T23:00:37.276Z,23.20
2023-02-22T23:03:05.905Z,19.60
2023-02-22T23:05:39.648Z,19.60
2023-02-22T23:08:10.775Z,22.20
2023-02-22T23:10:46.542Z,19.93
2023-02-22T23:13:17.341Z,20.47
2023-02-22T23:15:49.033Z,21.53
2023-02-22T23:18:21.953Z,20.20
2023-02-22T23:20:56.327Z,21.93
2023-02-22T23:26:14.872Z,19.40
2023-02-22T23:28:44.298Z,18.87
2023-02-22T23:31:17.581Z,16.70
2023-02-22T23:38:30.681Z,19.80
2023-02-22T23:41:05.818Z,19.13
2023-02-22T23:43:33.514Z,18.80
2023-02-22T23:46:11.433Z,18.60
2023-02-22T23:48:43.405Z,17.77
2023-02-22T23:51:31.722Z,17.57
2023-02-22T23:53:58.662Z,17.57
2023-02-22T23:56:27.319Z,18.60
2023-02-22T23:58:57.715Z,17.30
